This is the latest recevied weather packets stored in our database for station/object KR4DFQ. If no packets are shown the sender has not sent any weather packets the latest 10 day(s).
| Time | Temp. | Humidity | Pressure | Rain* | Wind** | Luminosity | Snow |
|---|---|---|---|---|---|---|---|
| 1787597002 | 32.22° C | 64% | 1017.3 hPa | 0 mm | - | 226 W/m² | - |
| 1787596699 | 32.22° C | 63% | 1017.5 hPa | 0 mm | - | 233 W/m² | - |
| 1787596394 | 33.33° C | 62% | 1017.6 hPa | 0 mm | - | 311 W/m² | - |
| 1787596089 | 33.33° C | 62% | 1017.6 hPa | 0 mm | - | 399 W/m² | - |
| 1787595785 | 33.89° C | 60% | 1017.7 hPa | 0 mm | - | 720 W/m² | - |
| 1787595481 | 33.89° C | 59% | 1017.7 hPa | 0 mm | - | 782 W/m² | - |
| 1787595175 | 32.78° C | 64% | 1017.6 hPa | 0 mm | - | 957 W/m² | - |
| 1787594870 | 32.78° C | 64% | 1017.8 hPa | 0 mm | - | 973 W/m² | - |
| 1787594570 | 31.67° C | 66% | 1017.6 hPa | 0 mm | - | 755 W/m² | - |
| 1787594268 | 31.11° C | 68% | 1018 hPa | 0 mm | - | 806 W/m² | - |
| 1787593963 | 31.11° C | 69% | 1018 hPa | 0 mm | - | 333 W/m² | - |
| 1787593658 | 31.11° C | 68% | 1017.8 hPa | 0 mm | - | 292 W/m² | - |
| 1787593353 | 31.11° C | 67% | 1017.8 hPa | 0 mm | - | 280 W/m² | - |
| 1787593049 | 31.11° C | 69% | 1017.9 hPa | 0 mm | - | 244 W/m² | - |
| 1787592744 | 31.11° C | 69% | 1017.7 hPa | 0 mm | - | 196 W/m² | - |
| 1787592443 | 31.11° C | 68% | 1017.9 hPa | 0 mm | - | 184 W/m² | - |
| 1787592144 | 31.67° C | 67% | 1017.9 hPa | 0 mm | - | 181 W/m² | - |
| 1787591839 | 31.67° C | 65% | 1018.2 hPa | 0 mm | - | 187 W/m² | - |
| 1787591539 | 31.67° C | 64% | 1018.1 hPa | 0 mm | - | 212 W/m² | - |
| 1787591236 | 31.67° C | 64% | 1018.3 hPa | 0 mm | - | 249 W/m² | - |
| 1787590931 | 32.22° C | 63% | 1018.2 hPa | 0 mm | - | 284 W/m² | - |
| 1787590626 | 32.22° C | 63% | 1018.4 hPa | 0 mm | - | 277 W/m² | - |
| 1787590321 | 32.78° C | 60% | 1018.3 hPa | 0 mm | - | 222 W/m² | - |
| 1787590016 | 32.78° C | 58% | 1018.2 hPa | 0 mm | - | 206 W/m² | - |
| 1787589713 | 33.89° C | 58% | 1018.4 hPa | 0 mm | - | 255 W/m² | - |
* Rain latest hour (hover to see other rain measurements)
** Current wind speed in m/s (hover to see current wind gust speed)